sensor_id;sensor_type;location;lat;lon;timestamp;temperature;humidity
5086;DHT22;4715;51.660;7.082;2023-11-21T00:00:11;9.20;99.90
5086;DHT22;4715;51.660;7.082;2023-11-21T00:02:33;9.20;99.90
5086;DHT22;4715;51.660;7.082;2023-11-21T00:04:55;9.20;99.90
5086;DHT22;4715;51.660;7.082;2023-11-21T00:07:18;9.30;99.90
5086;DHT22;4715;51.660;7.082;2023-11-21T00:09:41;9.30;99.90
5086;DHT22;4715;51.660;7.082;2023-11-21T00:12:04;9.30;99.90
5086;DHT22;4715;51.660;7.082;2023-11-21T00:14:26;9.30;99.90
5086;DHT22;4715;51.660;7.082;2023-11-21T00:16:48;9.30;99.90
5086;DHT22;4715;51.660;7.082;2023-11-21T00:19:09;9.30;99.90
5086;DHT22;4715;51.660;7.082;2023-11-21T00:21:31;9.20;99.90
5086;DHT22;4715;51.660;7.082;2023-11-21T00:23:55;9.20;99.90
5086;DHT22;4715;51.660;7.082;2023-11-21T00:26:16;9.10;99.90
5086;DHT22;4715;51.660;7.082;2023-11-21T00:28:38;9.10;99.90
5086;DHT22;4715;51.660;7.082;2023-11-21T00:31:00;9.10;99.90
5086;DHT22;4715;51.660;7.082;2023-11-21T00:33:22;9.00;99.90
5086;DHT22;4715;51.660;7.082;2023-11-21T00:35:45;9.00;99.90
5086;DHT22;4715;51.660;7.082;2023-11-21T00:38:09;9.00;99.90
5086;DHT22;4715;51.660;7.082;2023-11-21T00:40:32;9.00;99.90
5086;DHT22;4715;51.660;7.082;2023-11-21T00:42:54;9.00;99.90
5086;DHT22;4715;51.660;7.082;2023-11-21T00:45:16;9.00;99.90
5086;DHT22;4715;51.660;7.082;2023-11-21T00:47:38;8.90;99.90
5086;DHT22;4715;51.660;7.082;2023-11-21T00:50:00;8.90;99.90
5086;DHT22;4715;51.660;7.082;2023-11-21T00:52:22;8.90;99.90
5086;DHT22;4715;51.660;7.082;2023-11-21T00:54:44;8.90;99.90
5086;DHT22;4715;51.660;7.082;2023-11-21T00:57:07;8.90;99.90
5086;DHT22;4715;51.660;7.082;2023-11-21T00:59:29;9.00;99.90
5086;DHT22;4715;51.660;7.082;2023-11-21T01:01:50;9.00;99.90
5086;DHT22;4715;51.660;7.082;2023-11-21T01:04:13;9.00;99.90
5086;DHT22;4715;51.660;7.082;2023-11-21T01:06:37;8.90;99.90
5086;DHT22;4715;51.660;7.082;2023-11-21T01:08:59;8.90;99.90
5086;DHT22;4715;51.660;7.082;2023-11-21T01:11:21;8.90;99.90
5086;DHT22;4715;51.660;7.082;2023-11-21T01:13:44;8.90;99.90
5086;DHT22;4715;51.660;7.082;2023-11-21T01:16:07;9.00;99.90
5086;DHT22;4715;51.660;7.082;2023-11-21T01:18:29;9.00;99.90
5086;DHT22;4715;51.660;7.082;2023-11-21T01:20:51;9.00;99.90
5086;DHT22;4715;51.660;7.082;2023-11-21T01:23:13;9.00;99.90
5086;DHT22;4715;51.660;7.082;2023-11-21T01:25:35;9.00;99.90
5086;DHT22;4715;51.660;7.082;2023-11-21T01:27:57;9.00;99.90
5086;DHT22;4715;51.660;7.082;2023-11-21T01:30:20;8.90;99.90
5086;DHT22;4715;51.660;7.082;2023-11-21T01:32:42;8.90;99.90
5086;DHT22;4715;51.660;7.082;2023-11-21T01:35:06;8.90;99.90
5086;DHT22;4715;51.660;7.082;2023-11-21T01:37:30;8.90;99.90
5086;DHT22;4715;51.660;7.082;2023-11-21T01:39:52;8.90;99.90
5086;DHT22;4715;51.660;7.082;2023-11-21T01:42:13;8.90;99.90
5086;DHT22;4715;51.660;7.082;2023-11-21T01:44:35;8.90;99.90
5086;DHT22;4715;51.660;7.082;2023-11-21T01:46:59;8.90;99.90
5086;DHT22;4715;51.660;7.082;2023-11-21T01:49:25;8.90;99.90
5086;DHT22;4715;51.660;7.082;2023-11-21T01:51:48;8.90;99.90
5086;DHT22;4715;51.660;7.082;2023-11-21T01:54:11;8.90;99.90
5086;DHT22;4715;51.660;7.082;2023-11-21T01:56:33;8.80;99.90
5086;DHT22;4715;51.660;7.082;2023-11-21T01:58:55;8.80;99.90
5086;DHT22;4715;51.660;7.082;2023-11-21T02:01:17;8.80;99.90
5086;DHT22;4715;51.660;7.082;2023-11-21T02:03:40;8.80;99.90
5086;DHT22;4715;51.660;7.082;2023-11-21T02:06:03;8.70;99.90
5086;DHT22;4715;51.660;7.082;2023-11-21T02:08:25;8.70;99.90
5086;DHT22;4715;51.660;7.082;2023-11-21T02:10:48;8.60;99.90
5086;DHT22;4715;51.660;7.082;2023-11-21T02:13:10;8.60;99.90
5086;DHT22;4715;51.660;7.082;2023-11-21T02:15:31;8.60;99.90
5086;DHT22;4715;51.660;7.082;2023-11-21T02:17:55;8.60;99.90
5086;DHT22;4715;51.660;7.082;2023-11-21T02:20:21;8.60;99.90
5086;DHT22;4715;51.660;7.082;2023-11-21T02:22:49;8.60;99.90
5086;DHT22;4715;51.660;7.082;2023-11-21T02:25:13;8.60;99.90
5086;DHT22;4715;51.660;7.082;2023-11-21T02:27:35;8.60;99.90
5086;DHT22;4715;51.660;7.082;2023-11-21T02:29:57;8.60;99.90
5086;DHT22;4715;51.660;7.082;2023-11-21T02:32:20;8.60;99.90
5086;DHT22;4715;51.660;7.082;2023-11-21T02:34:43;8.70;99.90
5086;DHT22;4715;51.660;7.082;2023-11-21T02:37:08;8.60;99.90
5086;DHT22;4715;51.660;7.082;2023-11-21T02:39:32;8.60;99.90
5086;DHT22;4715;51.660;7.082;2023-11-21T02:41:53;8.60;99.90
5086;DHT22;4715;51.660;7.082;2023-11-21T02:44:16;8.50;99.90
5086;DHT22;4715;51.660;7.082;2023-11-21T02:46:38;8.50;99.90
5086;DHT22;4715;51.660;7.082;2023-11-21T02:49:00;8.50;99.90
5086;DHT22;4715;51.660;7.082;2023-11-21T02:51:22;8.50;99.90
5086;DHT22;4715;51.660;7.082;2023-11-21T02:53:45;8.50;99.90
5086;DHT22;4715;51.660;7.082;2023-11-21T02:56:09;8.50;99.90
5086;DHT22;4715;51.660;7.082;2023-11-21T02:58:30;8.50;99.90
5086;DHT22;4715;51.660;7.082;2023-11-21T03:00:52;8.60;99.90
5086;DHT22;4715;51.660;7.082;2023-11-21T03:03:15;8.50;99.90
5086;DHT22;4715;51.660;7.082;2023-11-21T03:05:37;8.50;99.90
5086;DHT22;4715;51.660;7.082;2023-11-21T03:07:59;8.50;99.90
5086;DHT22;4715;51.660;7.082;2023-11-21T03:10:21;8.50;99.90
5086;DHT22;4715;51.660;7.082;2023-11-21T03:12:45;8.50;99.90
5086;DHT22;4715;51.660;7.082;2023-11-21T03:15:07;8.50;99.90
5086;DHT22;4715;51.660;7.082;2023-11-21T03:17:30;8.50;99.90
5086;DHT22;4715;51.660;7.082;2023-11-21T03:19:54;8.50;99.90
5086;DHT22;4715;51.660;7.082;2023-11-21T03:22:17;8.50;99.90
5086;DHT22;4715;51.660;7.082;2023-11-21T03:24:39;8.40;99.90
5086;DHT22;4715;51.660;7.082;2023-11-21T03:27:01;8.40;99.90
5086;DHT22;4715;51.660;7.082;2023-11-21T03:29:25;8.40;99.90
5086;DHT22;4715;51.660;7.082;2023-11-21T03:31:47;8.50;99.90
5086;DHT22;4715;51.660;7.082;2023-11-21T03:34:23;8.40;99.90
5086;DHT22;4715;51.660;7.082;2023-11-21T03:36:45;8.50;99.90
5086;DHT22;4715;51.660;7.082;2023-11-21T03:39:07;8.50;99.90
5086;DHT22;4715;51.660;7.082;2023-11-21T03:41:29;8.50;99.90
5086;DHT22;4715;51.660;7.082;2023-11-21T03:43:52;8.50;99.90
5086;DHT22;4715;51.660;7.082;2023-11-21T03:46:15;8.50;99.90
5086;DHT22;4715;51.660;7.082;2023-11-21T03:48:38;8.50;99.90
5086;DHT22;4715;51.660;7.082;2023-11-21T03:50:59;8.60;99.90
5086;DHT22;4715;51.660;7.082;2023-11-21T03:53:21;8.60;99.90
5086;DHT22;4715;51.660;7.082;2023-11-21T03:55:43;8.60;99.90
5086;DHT22;4715;51.660;7.082;2023-11-21T03:58:05;8.60;99.90
5086;DHT22;4715;51.660;7.082;2023-11-21T04:00:28;8.60;99.90
5086;DHT22;4715;51.660;7.082;2023-11-21T04:02:51;8.60;99.90
5086;DHT22;4715;51.660;7.082;2023-11-21T04:05:13;8.70;99.90
5086;DHT22;4715;51.660;7.082;2023-11-21T04:07:35;8.70;99.90
5086;DHT22;4715;51.660;7.082;2023-11-21T04:09:57;8.70;99.90
5086;DHT22;4715;51.660;7.082;2023-11-21T04:12:19;8.70;99.90
5086;DHT22;4715;51.660;7.082;2023-11-21T04:14:41;8.70;99.90
5086;DHT22;4715;51.660;7.082;2023-11-21T04:17:03;8.70;99.90
5086;DHT22;4715;51.660;7.082;2023-11-21T04:19:26;8.70;99.90
5086;DHT22;4715;51.660;7.082;2023-11-21T04:21:48;8.80;99.90
5086;DHT22;4715;51.660;7.082;2023-11-21T04:24:10;8.80;99.90
5086;DHT22;4715;51.660;7.082;2023-11-21T04:26:32;8.80;99.90
5086;DHT22;4715;51.660;7.082;2023-11-21T04:28:54;8.80;99.90
5086;DHT22;4715;51.660;7.082;2023-11-21T04:31:16;8.80;99.90
5086;DHT22;4715;51.660;7.082;2023-11-21T04:33:38;8.80;99.90
5086;DHT22;4715;51.660;7.082;2023-11-21T04:36:01;8.80;99.90
5086;DHT22;4715;51.660;7.082;2023-11-21T04:38:23;8.80;99.90
5086;DHT22;4715;51.660;7.082;2023-11-21T04:40:45;8.80;99.90
5086;DHT22;4715;51.660;7.082;2023-11-21T04:43:07;8.80;99.90
5086;DHT22;4715;51.660;7.082;2023-11-21T04:45:29;8.80;99.90
5086;DHT22;4715;51.660;7.082;2023-11-21T04:47:51;8.90;99.90
5086;DHT22;4715;51.660;7.082;2023-11-21T04:50:13;8.80;99.90
5086;DHT22;4715;51.660;7.082;2023-11-21T04:52:36;8.90;99.90
5086;DHT22;4715;51.660;7.082;2023-11-21T04:54:58;8.90;99.90
5086;DHT22;4715;51.660;7.082;2023-11-21T04:57:21;8.80;99.90
5086;DHT22;4715;51.660;7.082;2023-11-21T04:59:43;8.90;99.90
5086;DHT22;4715;51.660;7.082;2023-11-21T05:02:05;8.90;99.90
5086;DHT22;4715;51.660;7.082;2023-11-21T05:04:27;8.90;99.90
5086;DHT22;4715;51.660;7.082;2023-11-21T05:06:49;8.90;99.90
5086;DHT22;4715;51.660;7.082;2023-11-21T05:09:12;8.90;99.90
5086;DHT22;4715;51.660;7.082;2023-11-21T05:11:34;8.90;99.90
5086;DHT22;4715;51.660;7.082;2023-11-21T05:13:55;9.00;99.90
5086;DHT22;4715;51.660;7.082;2023-11-21T05:16:19;9.00;99.90
5086;DHT22;4715;51.660;7.082;2023-11-21T05:18:42;9.00;99.90
5086;DHT22;4715;51.660;7.082;2023-11-21T05:21:04;9.00;99.90
5086;DHT22;4715;51.660;7.082;2023-11-21T05:23:26;9.00;99.90
5086;DHT22;4715;51.660;7.082;2023-11-21T05:25:49;9.00;99.90
5086;DHT22;4715;51.660;7.082;2023-11-21T05:28:11;8.90;99.90
5086;DHT22;4715;51.660;7.082;2023-11-21T05:30:33;8.90;99.90
5086;DHT22;4715;51.660;7.082;2023-11-21T05:32:55;8.90;99.90
5086;DHT22;4715;51.660;7.082;2023-11-21T05:35:17;8.80;99.90
5086;DHT22;4715;51.660;7.082;2023-11-21T05:37:39;8.80;99.90
5086;DHT22;4715;51.660;7.082;2023-11-21T05:40:01;8.80;99.90
5086;DHT22;4715;51.660;7.082;2023-11-21T05:42:27;8.80;99.90
5086;DHT22;4715;51.660;7.082;2023-11-21T05:44:50;8.80;99.90
5086;DHT22;4715;51.660;7.082;2023-11-21T05:47:12;8.80;99.90
5086;DHT22;4715;51.660;7.082;2023-11-21T05:49:36;8.80;99.90
5086;DHT22;4715;51.660;7.082;2023-11-21T05:51:58;8.90;99.90
5086;DHT22;4715;51.660;7.082;2023-11-21T05:54:20;8.90;99.90
5086;DHT22;4715;51.660;7.082;2023-11-21T05:56:42;8.90;99.90
5086;DHT22;4715;51.660;7.082;2023-11-21T05:59:06;8.90;99.90
5086;DHT22;4715;51.660;7.082;2023-11-21T06:01:28;8.90;99.90
5086;DHT22;4715;51.660;7.082;2023-11-21T06:03:49;8.90;99.90
5086;DHT22;4715;51.660;7.082;2023-11-21T06:06:12;8.90;99.90
5086;DHT22;4715;51.660;7.082;2023-11-21T06:08:41;8.90;99.90
5086;DHT22;4715;51.660;7.082;2023-11-21T06:11:04;9.00;99.90
5086;DHT22;4715;51.660;7.082;2023-11-21T06:13:26;9.00;99.90
5086;DHT22;4715;51.660;7.082;2023-11-21T06:15:59;9.00;99.90
5086;DHT22;4715;51.660;7.082;2023-11-21T06:18:21;9.00;99.90
5086;DHT22;4715;51.660;7.082;2023-11-21T06:20:43;9.00;99.90
5086;DHT22;4715;51.660;7.082;2023-11-21T06:23:05;9.00;99.90
5086;DHT22;4715;51.660;7.082;2023-11-21T06:25:27;9.10;99.90
5086;DHT22;4715;51.660;7.082;2023-11-21T06:27:50;9.10;99.90
5086;DHT22;4715;51.660;7.082;2023-11-21T06:30:17;9.10;99.90
5086;DHT22;4715;51.660;7.082;2023-11-21T06:32:42;9.00;99.90
5086;DHT22;4715;51.660;7.082;2023-11-21T06:35:07;9.10;99.90
5086;DHT22;4715;51.660;7.082;2023-11-21T06:37:31;9.10;99.90
5086;DHT22;4715;51.660;7.082;2023-11-21T06:39:53;9.10;99.90
5086;DHT22;4715;51.660;7.082;2023-11-21T06:42:17;9.10;99.90
5086;DHT22;4715;51.660;7.082;2023-11-21T06:44:39;9.10;99.90
5086;DHT22;4715;51.660;7.082;2023-11-21T06:47:09;9.10;99.90
5086;DHT22;4715;51.660;7.082;2023-11-21T06:49:32;9.00;99.90
5086;DHT22;4715;51.660;7.082;2023-11-21T06:51:54;9.00;99.90
5086;DHT22;4715;51.660;7.082;2023-11-21T06:54:16;8.90;99.90
5086;DHT22;4715;51.660;7.082;2023-11-21T06:56:41;8.90;99.90
5086;DHT22;4715;51.660;7.082;2023-11-21T06:59:03;8.80;99.90
5086;DHT22;4715;51.660;7.082;2023-11-21T07:01:26;8.80;99.90
5086;DHT22;4715;51.660;7.082;2023-11-21T07:03:47;8.70;99.90
5086;DHT22;4715;51.660;7.082;2023-11-21T07:06:14;8.70;99.90
5086;DHT22;4715;51.660;7.082;2023-11-21T07:08:37;8.70;99.90
5086;DHT22;4715;51.660;7.082;2023-11-21T07:11:00;8.70;99.90
5086;DHT22;4715;51.660;7.082;2023-11-21T07:13:23;8.70;99.90
5086;DHT22;4715;51.660;7.082;2023-11-21T07:15:46;8.60;99.90
5086;DHT22;4715;51.660;7.082;2023-11-21T07:18:08;8.60;99.90
5086;DHT22;4715;51.660;7.082;2023-11-21T07:20:30;8.60;99.90
5086;DHT22;4715;51.660;7.082;2023-11-21T07:22:56;8.50;99.90
5086;DHT22;4715;51.660;7.082;2023-11-21T07:25:18;8.50;99.90
5086;DHT22;4715;51.660;7.082;2023-11-21T07:27:40;8.40;99.90
5086;DHT22;4715;51.660;7.082;2023-11-21T07:30:05;8.40;99.90
5086;DHT22;4715;51.660;7.082;2023-11-21T07:32:28;8.30;99.90
5086;DHT22;4715;51.660;7.082;2023-11-21T07:34:51;8.40;99.90
5086;DHT22;4715;51.660;7.082;2023-11-21T07:37:15;8.40;99.90
5086;DHT22;4715;51.660;7.082;2023-11-21T07:39:38;8.30;99.90
5086;DHT22;4715;51.660;7.082;2023-11-21T07:42:03;8.30;99.90
5086;DHT22;4715;51.660;7.082;2023-11-21T07:44:25;8.30;99.90
5086;DHT22;4715;51.660;7.082;2023-11-21T07:46:48;8.30;99.90
5086;DHT22;4715;51.660;7.082;2023-11-21T07:49:11;8.30;99.90
5086;DHT22;4715;51.660;7.082;2023-11-21T07:51:35;8.30;99.90
5086;DHT22;4715;51.660;7.082;2023-11-21T07:53:57;8.30;99.90
5086;DHT22;4715;51.660;7.082;2023-11-21T07:56:28;8.30;99.90
5086;DHT22;4715;51.660;7.082;2023-11-21T07:58:51;8.30;99.90
5086;DHT22;4715;51.660;7.082;2023-11-21T08:01:16;8.30;99.90
5086;DHT22;4715;51.660;7.082;2023-11-21T08:03:38;8.30;99.90
5086;DHT22;4715;51.660;7.082;2023-11-21T08:06:03;8.40;99.90
5086;DHT22;4715;51.660;7.082;2023-11-21T08:08:26;8.40;99.90
5086;DHT22;4715;51.660;7.082;2023-11-21T08:10:48;8.40;99.90
5086;DHT22;4715;51.660;7.082;2023-11-21T08:13:20;8.50;99.90
5086;DHT22;4715;51.660;7.082;2023-11-21T08:15:44;8.60;99.90
5086;DHT22;4715;51.660;7.082;2023-11-21T08:18:06;8.60;99.90
5086;DHT22;4715;51.660;7.082;2023-11-21T08:20:29;8.60;99.90
5086;DHT22;4715;51.660;7.082;2023-11-21T08:22:51;8.60;99.90
5086;DHT22;4715;51.660;7.082;2023-11-21T08:25:14;8.60;99.90
5086;DHT22;4715;51.660;7.082;2023-11-21T08:27:36;8.50;99.90
5086;DHT22;4715;51.660;7.082;2023-11-21T08:29:59;8.50;99.90
5086;DHT22;4715;51.660;7.082;2023-11-21T08:32:21;8.50;99.90
5086;DHT22;4715;51.660;7.082;2023-11-21T08:34:43;8.50;99.90
5086;DHT22;4715;51.660;7.082;2023-11-21T08:37:06;8.60;99.90
5086;DHT22;4715;51.660;7.082;2023-11-21T08:39:30;8.60;99.90
5086;DHT22;4715;51.660;7.082;2023-11-21T08:41:52;8.60;99.90
5086;DHT22;4715;51.660;7.082;2023-11-21T08:44:14;8.70;99.90
5086;DHT22;4715;51.660;7.082;2023-11-21T08:46:38;8.70;99.90
5086;DHT22;4715;51.660;7.082;2023-11-21T08:49:04;8.80;99.90
5086;DHT22;4715;51.660;7.082;2023-11-21T08:51:28;8.80;99.90
5086;DHT22;4715;51.660;7.082;2023-11-21T08:53:50;8.90;99.90
5086;DHT22;4715;51.660;7.082;2023-11-21T08:56:12;8.90;99.90
5086;DHT22;4715;51.660;7.082;2023-11-21T08:58:35;8.90;99.90
5086;DHT22;4715;51.660;7.082;2023-11-21T09:00:57;8.90;99.90
5086;DHT22;4715;51.660;7.082;2023-11-21T09:03:20;8.90;99.90
5086;DHT22;4715;51.660;7.082;2023-11-21T09:05:45;8.90;99.90
5086;DHT22;4715;51.660;7.082;2023-11-21T09:08:07;8.90;99.90
5086;DHT22;4715;51.660;7.082;2023-11-21T09:10:29;9.00;99.90
5086;DHT22;4715;51.660;7.082;2023-11-21T09:12:51;9.00;99.90
5086;DHT22;4715;51.660;7.082;2023-11-21T09:15:13;9.00;99.90
5086;DHT22;4715;51.660;7.082;2023-11-21T09:17:35;9.00;99.90
5086;DHT22;4715;51.660;7.082;2023-11-21T09:19:59;9.00;99.90
5086;DHT22;4715;51.660;7.082;2023-11-21T09:22:20;9.00;99.90
5086;DHT22;4715;51.660;7.082;2023-11-21T09:24:42;8.90;99.90
5086;DHT22;4715;51.660;7.082;2023-11-21T09:27:04;8.90;99.90
5086;DHT22;4715;51.660;7.082;2023-11-21T09:29:26;8.90;99.90
5086;DHT22;4715;51.660;7.082;2023-11-21T09:31:48;8.90;99.90
5086;DHT22;4715;51.660;7.082;2023-11-21T09:34:11;8.90;99.90
5086;DHT22;4715;51.660;7.082;2023-11-21T09:36:36;8.80;99.90
5086;DHT22;4715;51.660;7.082;2023-11-21T09:38:59;8.80;99.90
5086;DHT22;4715;51.660;7.082;2023-11-21T09:41:29;8.80;99.90
5086;DHT22;4715;51.660;7.082;2023-11-21T09:43:57;8.80;99.90
5086;DHT22;4715;51.660;7.082;2023-11-21T09:46:23;8.70;99.90
5086;DHT22;4715;51.660;7.082;2023-11-21T09:48:50;8.80;99.90
5086;DHT22;4715;51.660;7.082;2023-11-21T09:51:12;8.80;99.90
5086;DHT22;4715;51.660;7.082;2023-11-21T09:53:36;8.80;99.90
5086;DHT22;4715;51.660;7.082;2023-11-21T09:55:58;8.80;99.90
5086;DHT22;4715;51.660;7.082;2023-11-21T09:58:23;8.90;99.90
5086;DHT22;4715;51.660;7.082;2023-11-21T10:00:47;9.00;99.90
5086;DHT22;4715;51.660;7.082;2023-11-21T10:03:10;9.10;99.90
5086;DHT22;4715;51.660;7.082;2023-11-21T10:05:32;9.10;99.90
5086;DHT22;4715;51.660;7.082;2023-11-21T10:07:56;9.20;99.90
5086;DHT22;4715;51.660;7.082;2023-11-21T10:10:22;9.20;99.90
5086;DHT22;4715;51.660;7.082;2023-11-21T10:12:49;9.30;99.90
5086;DHT22;4715;51.660;7.082;2023-11-21T10:15:12;9.30;99.90
5086;DHT22;4715;51.660;7.082;2023-11-21T10:17:38;9.20;99.90
5086;DHT22;4715;51.660;7.082;2023-11-21T10:20:05;9.20;99.90
5086;DHT22;4715;51.660;7.082;2023-11-21T10:22:34;9.20;99.90
5086;DHT22;4715;51.660;7.082;2023-11-21T10:24:56;9.20;99.90
5086;DHT22;4715;51.660;7.082;2023-11-21T10:27:20;9.20;99.90
5086;DHT22;4715;51.660;7.082;2023-11-21T10:29:42;9.30;99.90
5086;DHT22;4715;51.660;7.082;2023-11-21T10:32:06;9.30;99.90
5086;DHT22;4715;51.660;7.082;2023-11-21T10:34:28;9.30;99.90
5086;DHT22;4715;51.660;7.082;2023-11-21T10:36:50;9.20;99.90
5086;DHT22;4715;51.660;7.082;2023-11-21T10:39:14;9.20;99.90
5086;DHT22;4715;51.660;7.082;2023-11-21T10:41:39;9.20;99.90
5086;DHT22;4715;51.660;7.082;2023-11-21T10:44:04;9.20;99.90
5086;DHT22;4715;51.660;7.082;2023-11-21T10:46:27;9.30;99.90
5086;DHT22;4715;51.660;7.082;2023-11-21T10:48:52;9.40;99.90
5086;DHT22;4715;51.660;7.082;2023-11-21T10:51:15;9.40;99.90
5086;DHT22;4715;51.660;7.082;2023-11-21T10:53:39;9.50;99.90
5086;DHT22;4715;51.660;7.082;2023-11-21T10:56:06;9.40;99.90
5086;DHT22;4715;51.660;7.082;2023-11-21T10:58:28;9.40;99.90
5086;DHT22;4715;51.660;7.082;2023-11-21T11:00:54;9.50;99.90
5086;DHT22;4715;51.660;7.082;2023-11-21T11:03:18;9.50;99.90
5086;DHT22;4715;51.660;7.082;2023-11-21T11:05:41;9.60;99.90
5086;DHT22;4715;51.660;7.082;2023-11-21T11:08:13;9.60;99.90
5086;DHT22;4715;51.660;7.082;2023-11-21T11:10:39;9.60;99.90
5086;DHT22;4715;51.660;7.082;2023-11-21T11:13:01;9.60;99.90
5086;DHT22;4715;51.660;7.082;2023-11-21T11:15:24;9.60;99.90
5086;DHT22;4715;51.660;7.082;2023-11-21T11:17:48;9.70;99.90
5086;DHT22;4715;51.660;7.082;2023-11-21T11:20:13;9.70;99.90
5086;DHT22;4715;51.660;7.082;2023-11-21T11:22:40;9.70;99.90
5086;DHT22;4715;51.660;7.082;2023-11-21T11:25:21;9.70;99.90
5086;DHT22;4715;51.660;7.082;2023-11-21T11:27:52;9.70;99.90
5086;DHT22;4715;51.660;7.082;2023-11-21T11:30:28;9.70;99.90
5086;DHT22;4715;51.660;7.082;2023-11-21T11:33:10;9.80;99.90
5086;DHT22;4715;51.660;7.082;2023-11-21T11:35:38;9.80;99.90
5086;DHT22;4715;51.660;7.082;2023-11-21T11:38:03;9.80;99.90
5086;DHT22;4715;51.660;7.082;2023-11-21T11:40:38;9.80;99.90
5086;DHT22;4715;51.660;7.082;2023-11-21T11:43:02;9.80;99.90
5086;DHT22;4715;51.660;7.082;2023-11-21T11:45:31;9.80;99.90
5086;DHT22;4715;51.660;7.082;2023-11-21T11:47:57;9.90;99.90
5086;DHT22;4715;51.660;7.082;2023-11-21T11:50:20;9.90;99.90
5086;DHT22;4715;51.660;7.082;2023-11-21T11:52:43;9.90;99.90
5086;DHT22;4715;51.660;7.082;2023-11-21T11:55:08;9.90;99.90
5086;DHT22;4715;51.660;7.082;2023-11-21T11:57:36;9.90;99.90
5086;DHT22;4715;51.660;7.082;2023-11-21T12:00:15;10.00;99.90
5086;DHT22;4715;51.660;7.082;2023-11-21T12:02:39;10.00;99.90
5086;DHT22;4715;51.660;7.082;2023-11-21T12:05:01;10.00;99.90
5086;DHT22;4715;51.660;7.082;2023-11-21T12:07:25;10.00;99.90
5086;DHT22;4715;51.660;7.082;2023-11-21T12:10:01;10.00;99.90
5086;DHT22;4715;51.660;7.082;2023-11-21T12:12:26;10.00;99.90
5086;DHT22;4715;51.660;7.082;2023-11-21T12:14:48;10.10;99.90
5086;DHT22;4715;51.660;7.082;2023-11-21T12:17:17;10.10;99.90
5086;DHT22;4715;51.660;7.082;2023-11-21T12:19:39;10.20;99.90
5086;DHT22;4715;51.660;7.082;2023-11-21T12:22:01;10.20;99.90
5086;DHT22;4715;51.660;7.082;2023-11-21T12:24:25;10.20;99.90
5086;DHT22;4715;51.660;7.082;2023-11-21T12:26:49;10.20;99.90
5086;DHT22;4715;51.660;7.082;2023-11-21T12:29:10;10.20;99.90
5086;DHT22;4715;51.660;7.082;2023-11-21T12:31:34;10.20;99.90
5086;DHT22;4715;51.660;7.082;2023-11-21T12:33:56;10.20;99.90
5086;DHT22;4715;51.660;7.082;2023-11-21T12:36:19;10.20;99.90
5086;DHT22;4715;51.660;7.082;2023-11-21T12:38:40;10.20;99.90
5086;DHT22;4715;51.660;7.082;2023-11-21T12:41:04;10.20;99.90
5086;DHT22;4715;51.660;7.082;2023-11-21T12:43:28;10.30;99.90
5086;DHT22;4715;51.660;7.082;2023-11-21T12:45:51;10.20;99.90
5086;DHT22;4715;51.660;7.082;2023-11-21T12:48:26;10.20;99.90
5086;DHT22;4715;51.660;7.082;2023-11-21T12:50:50;10.20;99.90
5086;DHT22;4715;51.660;7.082;2023-11-21T12:53:14;10.20;99.90
5086;DHT22;4715;51.660;7.082;2023-11-21T12:55:38;10.20;99.90
5086;DHT22;4715;51.660;7.082;2023-11-21T12:58:05;10.20;99.90
5086;DHT22;4715;51.660;7.082;2023-11-21T13:00:33;10.20;99.90
5086;DHT22;4715;51.660;7.082;2023-11-21T13:02:59;10.20;99.90
5086;DHT22;4715;51.660;7.082;2023-11-21T13:05:29;10.20;99.90
5086;DHT22;4715;51.660;7.082;2023-11-21T13:08:15;10.20;99.90
5086;DHT22;4715;51.660;7.082;2023-11-21T13:10:42;10.10;99.90
5086;DHT22;4715;51.660;7.082;2023-11-21T13:13:09;10.10;99.90
5086;DHT22;4715;51.660;7.082;2023-11-21T13:15:39;10.10;99.90
5086;DHT22;4715;51.660;7.082;2023-11-21T13:18:02;10.10;99.90
5086;DHT22;4715;51.660;7.082;2023-11-21T13:20:24;10.10;99.90
5086;DHT22;4715;51.660;7.082;2023-11-21T13:22:48;10.20;99.90
5086;DHT22;4715;51.660;7.082;2023-11-21T13:25:10;10.20;99.90
5086;DHT22;4715;51.660;7.082;2023-11-21T13:27:32;10.20;99.90
5086;DHT22;4715;51.660;7.082;2023-11-21T13:29:56;10.20;99.90
5086;DHT22;4715;51.660;7.082;2023-11-21T13:32:21;10.20;99.90
5086;DHT22;4715;51.660;7.082;2023-11-21T13:34:43;10.20;99.90
5086;DHT22;4715;51.660;7.082;2023-11-21T13:37:07;10.20;99.90
5086;DHT22;4715;51.660;7.082;2023-11-21T13:39:29;10.20;99.90
5086;DHT22;4715;51.660;7.082;2023-11-21T13:41:53;10.10;99.90
5086;DHT22;4715;51.660;7.082;2023-11-21T13:44:17;10.10;99.90
5086;DHT22;4715;51.660;7.082;2023-11-21T13:46:48;10.00;99.90
5086;DHT22;4715;51.660;7.082;2023-11-21T13:49:11;10.00;99.90
5086;DHT22;4715;51.660;7.082;2023-11-21T13:51:35;10.00;99.90
5086;DHT22;4715;51.660;7.082;2023-11-21T13:54:02;10.00;99.90
5086;DHT22;4715;51.660;7.082;2023-11-21T13:56:29;10.00;99.90
5086;DHT22;4715;51.660;7.082;2023-11-21T13:58:52;10.00;99.90
5086;DHT22;4715;51.660;7.082;2023-11-21T14:01:16;10.00;99.90
5086;DHT22;4715;51.660;7.082;2023-11-21T14:04:06;10.00;99.90
5086;DHT22;4715;51.660;7.082;2023-11-21T14:06:39;10.00;99.90
5086;DHT22;4715;51.660;7.082;2023-11-21T14:09:08;10.00;99.90
5086;DHT22;4715;51.660;7.082;2023-11-21T14:11:30;10.00;99.90
5086;DHT22;4715;51.660;7.082;2023-11-21T14:13:52;10.00;99.90
5086;DHT22;4715;51.660;7.082;2023-11-21T14:16:14;9.90;99.90
5086;DHT22;4715;51.660;7.082;2023-11-21T14:18:39;10.00;99.90
5086;DHT22;4715;51.660;7.082;2023-11-21T14:21:14;10.00;99.90
5086;DHT22;4715;51.660;7.082;2023-11-21T14:23:37;10.00;99.90
5086;DHT22;4715;51.660;7.082;2023-11-21T14:25:59;9.90;99.90
5086;DHT22;4715;51.660;7.082;2023-11-21T14:28:23;10.00;99.90
5086;DHT22;4715;51.660;7.082;2023-11-21T14:30:46;9.90;99.90
5086;DHT22;4715;51.660;7.082;2023-11-21T14:33:08;9.90;99.90
5086;DHT22;4715;51.660;7.082;2023-11-21T14:35:32;9.90;99.90
5086;DHT22;4715;51.660;7.082;2023-11-21T14:37:56;9.80;99.90
5086;DHT22;4715;51.660;7.082;2023-11-21T14:40:19;9.80;99.90
5086;DHT22;4715;51.660;7.082;2023-11-21T14:42:45;9.90;99.90
5086;DHT22;4715;51.660;7.082;2023-11-21T14:45:09;9.80;99.90
5086;DHT22;4715;51.660;7.082;2023-11-21T14:47:40;9.80;99.90
5086;DHT22;4715;51.660;7.082;2023-11-21T14:50:07;9.80;99.90
5086;DHT22;4715;51.660;7.082;2023-11-21T14:52:53;9.70;99.90
5086;DHT22;4715;51.660;7.082;2023-11-21T14:55:20;9.70;99.90
5086;DHT22;4715;51.660;7.082;2023-11-21T14:57:51;9.70;99.90
5086;DHT22;4715;51.660;7.082;2023-11-21T15:00:14;9.70;99.90
5086;DHT22;4715;51.660;7.082;2023-11-21T15:02:56;9.70;99.90
5086;DHT22;4715;51.660;7.082;2023-11-21T15:05:23;9.70;99.90
5086;DHT22;4715;51.660;7.082;2023-11-21T15:08:04;9.70;99.90
5086;DHT22;4715;51.660;7.082;2023-11-21T15:10:42;9.70;99.90
5086;DHT22;4715;51.660;7.082;2023-11-21T15:13:07;9.70;99.90
5086;DHT22;4715;51.660;7.082;2023-11-21T15:15:31;9.60;99.90
5086;DHT22;4715;51.660;7.082;2023-11-21T15:17:55;9.60;99.90
5086;DHT22;4715;51.660;7.082;2023-11-21T15:20:17;9.60;99.90
5086;DHT22;4715;51.660;7.082;2023-11-21T15:22:41;9.50;99.90
5086;DHT22;4715;51.660;7.082;2023-11-21T15:25:04;9.50;99.90
5086;DHT22;4715;51.660;7.082;2023-11-21T15:27:31;9.50;99.90
5086;DHT22;4715;51.660;7.082;2023-11-21T15:29:53;9.40;99.90
5086;DHT22;4715;51.660;7.082;2023-11-21T15:32:16;9.40;99.90
5086;DHT22;4715;51.660;7.082;2023-11-21T15:34:40;9.40;99.90
5086;DHT22;4715;51.660;7.082;2023-11-21T15:37:04;9.30;99.90
5086;DHT22;4715;51.660;7.082;2023-11-21T15:39:31;9.30;99.90
5086;DHT22;4715;51.660;7.082;2023-11-21T15:41:55;9.20;99.90
5086;DHT22;4715;51.660;7.082;2023-11-21T15:44:18;9.20;99.90
5086;DHT22;4715;51.660;7.082;2023-11-21T15:46:40;9.10;99.90
5086;DHT22;4715;51.660;7.082;2023-11-21T15:49:03;9.10;99.90
5086;DHT22;4715;51.660;7.082;2023-11-21T15:51:32;9.00;99.90